createdAt,value
2022-11-12T00:02:34.254Z,6.30
2022-11-12T00:05:22.970Z,6.63
2022-11-12T00:08:09.051Z,6.13
2022-11-12T00:10:54.899Z,6.03
2022-11-12T00:13:40.734Z,6.13
2022-11-12T00:16:26.498Z,5.90
2022-11-12T00:19:12.558Z,5.50
2022-11-12T00:21:58.499Z,6.47
2022-11-12T00:24:44.423Z,5.80
2022-11-12T00:27:30.407Z,5.50
2022-11-12T00:30:16.533Z,5.57
2022-11-12T00:33:03.303Z,5.60
2022-11-12T00:35:49.200Z,6.30
2022-11-12T00:38:35.106Z,6.07
2022-11-12T00:41:21.099Z,5.97
2022-11-12T00:44:06.798Z,5.37
2022-11-12T00:46:53.020Z,5.53
2022-11-12T00:49:39.338Z,5.40
2022-11-12T00:52:25.363Z,5.27
2022-11-12T00:55:11.872Z,5.73
2022-11-12T00:57:59.449Z,5.63
2022-11-12T01:00:46.438Z,6.03
2022-11-12T01:03:32.702Z,5.50
2022-11-12T01:06:20.212Z,5.80
2022-11-12T01:09:06.168Z,5.80
2022-11-12T01:11:52.126Z,5.50
2022-11-12T01:14:38.156Z,5.77
2022-11-12T01:17:24.091Z,5.57
2022-11-12T01:20:10.107Z,5.60
2022-11-12T01:22:56.112Z,5.67
2022-11-12T01:25:41.995Z,5.67
2022-11-12T01:28:29.702Z,5.80
2022-11-12T01:31:17.006Z,5.60
2022-11-12T01:34:04.526Z,5.30
2022-11-12T01:36:50.351Z,5.73
2022-11-12T01:39:36.375Z,5.40
2022-11-12T01:42:24.429Z,5.03
2022-11-12T01:45:16.011Z,5.30
2022-11-12T01:48:02.607Z,4.93
2022-11-12T01:50:48.546Z,4.93
2022-11-12T01:53:37.195Z,5.10
2022-11-12T01:56:24.280Z,4.80
2022-11-12T01:59:16.785Z,5.03
2022-11-12T02:02:03.030Z,5.00
2022-11-12T02:04:49.542Z,5.03
2022-11-12T02:07:36.577Z,5.27
2022-11-12T02:10:23.281Z,5.13
2022-11-12T02:13:28.254Z,4.97
2022-11-12T02:16:14.892Z,4.87
2022-11-12T02:19:02.514Z,5.10
2022-11-12T02:21:48.477Z,4.60
2022-11-12T02:24:35.550Z,4.53
2022-11-12T02:27:22.439Z,4.73
2022-11-12T02:30:08.876Z,4.53
2022-11-12T02:32:54.765Z,4.50
2022-11-12T02:35:40.789Z,4.70
2022-11-12T02:38:27.319Z,4.60
2022-11-12T02:41:13.353Z,4.37
2022-11-12T02:43:59.263Z,4.50
2022-11-12T02:46:45.098Z,4.50
2022-11-12T02:49:31.116Z,4.10
2022-11-12T02:52:17.096Z,4.00
2022-11-12T02:55:03.258Z,3.57
2022-11-12T02:57:49.282Z,4.00
2022-11-12T03:00:35.436Z,3.30
2022-11-12T03:03:21.141Z,3.23
2022-11-12T03:06:07.434Z,3.50
2022-11-12T03:08:52.995Z,3.50
2022-11-12T03:11:39.138Z,3.57
2022-11-12T03:14:25.195Z,3.60
2022-11-12T03:17:11.161Z,3.10
2022-11-12T03:19:57.239Z,3.40
2022-11-12T03:22:43.361Z,3.13
2022-11-12T03:25:29.774Z,3.07
2022-11-12T03:28:16.452Z,3.03
2022-11-12T03:31:02.345Z,3.00
2022-11-12T03:33:48.027Z,3.20
2022-11-12T03:36:34.012Z,2.70
2022-11-12T03:39:19.830Z,2.63
2022-11-12T03:42:05.740Z,2.77
2022-11-12T03:44:51.552Z,2.80
2022-11-12T03:47:37.506Z,2.53
2022-11-12T03:50:25.209Z,2.77
2022-11-12T03:53:11.625Z,2.70
2022-11-12T03:55:57.601Z,2.57
2022-11-12T03:58:43.494Z,2.50
2022-11-12T04:01:29.513Z,2.17
2022-11-12T04:04:15.433Z,2.30
2022-11-12T04:07:19.942Z,2.50
2022-11-12T04:10:06.220Z,2.40
2022-11-12T04:13:10.702Z,2.37
2022-11-12T04:16:33.809Z,2.40
2022-11-12T04:19:38.110Z,2.30
2022-11-12T04:22:24.126Z,2.60
2022-11-12T04:25:28.524Z,2.10
2022-11-12T04:28:14.446Z,2.40
2022-11-12T04:31:00.504Z,2.23
2022-11-12T04:33:46.399Z,2.70
2022-11-12T04:36:32.437Z,2.40
2022-11-12T04:39:18.403Z,2.37
2022-11-12T04:42:23.413Z,2.40
2022-11-12T04:45:11.112Z,2.17
2022-11-12T04:47:57.342Z,2.23
2022-11-12T04:50:44.678Z,2.40
2022-11-12T04:53:31.456Z,2.23
2022-11-12T04:56:17.111Z,2.40
2022-11-12T04:59:02.958Z,2.00
2022-11-12T05:01:48.999Z,2.20
2022-11-12T05:04:34.994Z,2.40
2022-11-12T05:07:21.010Z,2.00
2022-11-12T05:10:07.290Z,1.93
2022-11-12T05:12:52.849Z,2.10
2022-11-12T05:15:38.787Z,2.30
2022-11-12T05:18:24.989Z,1.87
2022-11-12T05:21:31.334Z,2.10
2022-11-12T05:24:34.105Z,2.17
2022-11-12T05:27:23.128Z,1.60
2022-11-12T05:30:09.474Z,1.90
2022-11-12T05:32:55.580Z,1.90
2022-11-12T05:35:41.477Z,1.90
2022-11-12T05:38:27.693Z,1.87
2022-11-12T05:41:18.762Z,1.80
2022-11-12T05:44:05.893Z,1.80
2022-11-12T05:46:52.029Z,1.70
2022-11-12T05:49:41.400Z,1.50
2022-11-12T05:52:27.459Z,1.60
2022-11-12T05:55:13.123Z,1.60
2022-11-12T05:57:59.195Z,1.40
2022-11-12T06:00:45.064Z,1.50
2022-11-12T06:03:31.475Z,1.57
2022-11-12T06:06:17.444Z,1.63
2022-11-12T06:09:03.384Z,1.70
2022-11-12T06:11:49.311Z,1.70
2022-11-12T06:14:35.411Z,1.60
2022-11-12T06:17:21.188Z,1.50
2022-11-12T06:20:07.441Z,1.47
2022-11-12T06:22:53.153Z,1.50
2022-11-12T06:25:39.115Z,1.50
2022-11-12T06:28:28.507Z,1.40
2022-11-12T06:31:15.043Z,1.40
2022-11-12T06:34:00.886Z,1.40
2022-11-12T06:36:48.913Z,1.47
2022-11-12T06:39:34.889Z,1.30
2022-11-12T06:42:20.758Z,1.50
2022-11-12T06:45:07.130Z,1.50
2022-11-12T06:47:52.705Z,1.20
2022-11-12T06:50:38.655Z,1.50
2022-11-12T06:53:25.124Z,1.30
2022-11-12T06:56:11.334Z,1.23
2022-11-12T06:58:57.425Z,1.30
2022-11-12T07:01:43.351Z,1.30
2022-11-12T07:04:29.350Z,1.20
2022-11-12T07:07:15.524Z,1.20
2022-11-12T07:10:01.422Z,1.20
2022-11-12T07:12:53.032Z,1.10
2022-11-12T07:15:39.502Z,1.10
2022-11-12T07:18:25.916Z,1.10
2022-11-12T07:21:13.514Z,1.20
2022-11-12T07:23:59.211Z,1.10
2022-11-12T07:26:47.623Z,1.10
2022-11-12T07:29:46.938Z,1.30
2022-11-12T07:32:37.285Z,1.20
2022-11-12T07:35:26.468Z,1.17
2022-11-12T07:38:12.198Z,1.10
2022-11-12T07:41:05.559Z,1.20
2022-11-12T07:43:52.281Z,1.33
2022-11-12T07:46:38.190Z,1.60
2022-11-12T07:49:24.192Z,1.63
2022-11-12T07:52:10.056Z,1.90
2022-11-12T07:54:56.141Z,2.13
2022-11-12T07:57:42.095Z,2.20
2022-11-12T08:00:28.124Z,2.00
2022-11-12T08:03:14.212Z,2.00
2022-11-12T08:06:03.233Z,2.20
2022-11-12T08:08:49.096Z,2.70
2022-11-12T08:11:35.301Z,2.30
2022-11-12T08:14:21.200Z,2.67
2022-11-12T08:17:07.182Z,2.60
2022-11-12T08:19:55.319Z,2.47
2022-11-12T08:22:46.348Z,2.43
2022-11-12T08:25:35.300Z,2.47
2022-11-12T08:28:21.059Z,2.27
2022-11-12T08:31:08.015Z,2.60
2022-11-12T08:33:53.948Z,2.67
2022-11-12T08:36:40.539Z,2.80
2022-11-12T08:39:26.757Z,3.33
2022-11-12T08:42:12.604Z,3.60
2022-11-12T08:44:58.557Z,3.77
2022-11-12T08:47:44.383Z,3.50
2022-11-12T08:50:30.656Z,3.60
2022-11-12T08:53:16.429Z,4.17
2022-11-12T08:56:02.332Z,4.47
2022-11-12T08:58:48.397Z,4.67
2022-11-12T09:01:34.292Z,3.53
2022-11-12T09:04:20.045Z,4.10
2022-11-12T09:07:09.318Z,3.60
2022-11-12T09:09:55.749Z,4.93
2022-11-12T09:12:41.656Z,4.23
2022-11-12T09:15:42.992Z,4.23
2022-11-12T09:18:29.138Z,4.27
2022-11-12T09:21:15.326Z,4.13
2022-11-12T09:24:01.290Z,4.70
2022-11-12T09:26:48.233Z,4.80
2022-11-12T09:29:34.031Z,4.40
2022-11-12T09:32:20.153Z,4.33
2022-11-12T09:35:06.172Z,3.53
2022-11-12T09:37:52.283Z,3.43
2022-11-12T09:40:42.111Z,4.30
2022-11-12T09:43:35.802Z,3.90
2022-11-12T09:46:31.759Z,4.17
2022-11-12T09:49:24.076Z,5.87
2022-11-12T09:52:30.019Z,4.97
2022-11-12T09:55:16.032Z,6.20
2022-11-12T09:58:02.187Z,5.63
2022-11-12T10:00:59.602Z,6.73
2022-11-12T10:03:48.669Z,7.90
2022-11-12T10:06:52.769Z,8.77
2022-11-12T10:09:45.884Z,9.07
2022-11-12T10:12:42.815Z,8.13
2022-11-12T10:16:07.541Z,8.43
2022-11-12T10:19:10.866Z,8.50
2022-11-12T10:22:09.253Z,8.37
2022-11-12T10:24:55.624Z,9.20
2022-11-12T10:27:42.566Z,8.77
2022-11-12T10:30:28.439Z,9.17
2022-11-12T10:33:17.446Z,8.50
2022-11-12T10:36:33.544Z,8.10
2022-11-12T10:39:35.730Z,7.93
2022-11-12T10:42:22.400Z,8.43
2022-11-12T10:45:20.030Z,9.87
2022-11-12T10:48:06.266Z,9.10
2022-11-12T10:50:51.957Z,8.70
2022-11-12T10:53:39.500Z,8.60
2022-11-12T10:56:26.723Z,9.53
2022-11-12T10:59:15.672Z,10.67
2022-11-12T11:02:01.962Z,9.17
2022-11-12T11:04:48.126Z,9.80
2022-11-12T11:07:34.023Z,9.70
2022-11-12T11:10:25.174Z,8.93
2022-11-12T11:13:26.911Z,8.77
2022-11-12T11:16:17.450Z,8.47
2022-11-12T11:19:06.659Z,9.00
2022-11-12T11:21:58.686Z,9.20
2022-11-12T11:25:03.494Z,10.33
2022-11-12T11:28:08.055Z,10.87
2022-11-12T11:30:58.447Z,10.40
2022-11-12T11:34:10.459Z,12.07
2022-11-12T11:37:01.726Z,9.00
2022-11-12T11:40:06.730Z,10.40
2022-11-12T11:42:55.779Z,10.70
2022-11-12T11:46:00.348Z,11.00
2022-11-12T11:48:55.112Z,11.63
2022-11-12T11:51:49.081Z,10.47
2022-11-12T11:54:54.478Z,10.83
2022-11-12T11:57:46.331Z,10.90
2022-11-12T12:00:55.556Z,10.27
2022-11-12T12:03:44.232Z,10.67
2022-11-12T12:06:32.197Z,9.13
2022-11-12T12:09:27.198Z,9.90
2022-11-12T12:12:39.523Z,9.80
2022-11-12T12:15:40.432Z,9.70
2022-11-12T12:18:26.774Z,10.07
2022-11-12T12:21:14.242Z,9.43
2022-11-12T12:24:05.681Z,9.17
2022-11-12T12:26:59.444Z,9.27
2022-11-12T12:29:49.385Z,9.13
2022-11-12T12:32:39.850Z,10.03
2022-11-12T12:35:33.900Z,8.93
2022-11-12T12:38:30.343Z,8.80
2022-11-12T12:41:42.893Z,8.37
2022-11-12T12:44:50.131Z,7.77
2022-11-12T12:47:38.198Z,7.33
2022-11-12T12:50:24.764Z,7.77
2022-11-12T12:53:23.127Z,8.33
2022-11-12T12:56:15.152Z,9.13
2022-11-12T12:59:03.859Z,8.43
2022-11-12T13:02:00.469Z,8.33
2022-11-12T13:04:53.860Z,7.90
2022-11-12T13:07:45.615Z,8.50
2022-11-12T13:10:35.660Z,8.67
2022-11-12T13:13:21.712Z,9.33
2022-11-12T13:16:08.297Z,9.03
2022-11-12T13:18:54.225Z,9.27
2022-11-12T13:21:40.379Z,8.27
2022-11-12T13:24:45.278Z,8.20
2022-11-12T13:27:40.670Z,7.97
2022-11-12T13:30:26.793Z,8.50
2022-11-12T13:33:25.837Z,9.03
2022-11-12T13:36:26.383Z,8.07
2022-11-12T13:39:15.442Z,9.37
2022-11-12T13:42:21.824Z,8.13
2022-11-12T13:45:08.331Z,7.60
2022-11-12T13:47:54.568Z,7.30
2022-11-12T13:50:41.755Z,6.90
2022-11-12T13:53:28.721Z,7.30
2022-11-12T13:56:27.802Z,7.40
2022-11-12T13:59:20.775Z,7.37
2022-11-12T14:02:15.995Z,7.03
2022-11-12T14:05:02.283Z,6.63
2022-11-12T14:07:54.237Z,7.30
2022-11-12T14:10:49.293Z,7.10
2022-11-12T14:13:41.446Z,6.70
2022-11-12T14:16:42.633Z,6.40
2022-11-12T14:19:34.528Z,6.77
2022-11-12T14:22:21.687Z,6.20
2022-11-12T14:25:25.109Z,6.93
2022-11-12T14:28:25.286Z,7.03
2022-11-12T14:31:15.472Z,6.47
2022-11-12T14:34:23.840Z,6.77
2022-11-12T14:37:19.455Z,6.37
2022-11-12T14:40:05.451Z,6.50
2022-11-12T14:42:52.382Z,6.53
2022-11-12T14:45:38.395Z,6.80
2022-11-12T14:48:24.636Z,6.80
2022-11-12T14:51:12.428Z,6.73
2022-11-12T14:54:06.964Z,7.20
2022-11-12T14:56:53.212Z,7.30
2022-11-12T14:59:39.038Z,7.00
2022-11-12T15:02:47.358Z,6.83
2022-11-12T15:05:52.943Z,7.20
2022-11-12T15:08:39.687Z,7.33
2022-11-12T15:11:29.032Z,6.70
2022-11-12T15:14:22.588Z,7.00
2022-11-12T15:17:22.552Z,7.03
2022-11-12T15:20:18.543Z,6.83
2022-11-12T15:23:04.404Z,6.93
2022-11-12T15:26:00.386Z,7.03
2022-11-12T15:28:59.542Z,6.83
2022-11-12T15:31:45.540Z,6.93
2022-11-12T15:34:31.611Z,6.63
2022-11-12T15:37:20.340Z,6.60
2022-11-12T15:40:16.129Z,6.57
2022-11-12T15:43:02.364Z,7.07
2022-11-12T15:45:49.730Z,7.10
2022-11-12T15:48:35.596Z,6.70
2022-11-12T15:51:22.235Z,5.77
2022-11-12T15:54:08.182Z,6.27
2022-11-12T15:56:54.362Z,5.87
2022-11-12T15:59:40.370Z,5.60
2022-11-12T16:02:26.476Z,5.70
2022-11-12T16:05:16.521Z,5.57
2022-11-12T16:08:02.582Z,5.90
2022-11-12T16:10:48.694Z,6.30
2022-11-12T16:13:34.845Z,6.70
2022-11-12T16:16:20.631Z,6.37
2022-11-12T16:19:16.746Z,6.30
2022-11-12T16:22:02.726Z,5.93
2022-11-12T16:24:48.464Z,5.50
2022-11-12T16:27:34.704Z,5.60
2022-11-12T16:30:24.714Z,6.27
2022-11-12T16:33:11.557Z,5.60
2022-11-12T16:35:57.201Z,5.57
2022-11-12T16:38:43.602Z,5.53
2022-11-12T16:41:29.368Z,5.07
2022-11-12T16:44:15.855Z,5.70
2022-11-12T16:47:03.397Z,5.40
2022-11-12T16:49:49.383Z,5.70
2022-11-12T16:52:35.435Z,5.67
2022-11-12T16:55:21.736Z,5.20
2022-11-12T16:58:07.406Z,5.07
2022-11-12T17:00:53.519Z,5.20
2022-11-12T17:03:39.558Z,5.03
2022-11-12T17:06:32.820Z,5.20
2022-11-12T17:09:18.835Z,5.10
2022-11-12T17:12:04.996Z,5.03
2022-11-12T17:14:50.873Z,4.93
2022-11-12T17:17:36.816Z,4.93
2022-11-12T17:20:22.569Z,5.30
2022-11-12T17:23:08.705Z,5.23
2022-11-12T17:26:01.888Z,5.20
2022-11-12T17:28:48.452Z,5.00
2022-11-12T17:31:34.493Z,5.03
2022-11-12T17:34:20.648Z,5.40
2022-11-12T17:37:06.473Z,4.90
2022-11-12T17:39:52.624Z,5.00
2022-11-12T17:42:38.671Z,4.93
2022-11-12T17:45:24.553Z,5.00
2022-11-12T17:48:10.577Z,5.03
2022-11-12T17:51:04.930Z,5.40
2022-11-12T17:53:52.035Z,5.20
2022-11-12T17:56:38.215Z,5.07
2022-11-12T17:59:24.674Z,4.80
2022-11-12T18:02:13.778Z,4.73
2022-11-12T18:04:59.714Z,5.10
2022-11-12T18:07:45.571Z,4.97
2022-11-12T18:10:31.592Z,5.13
2022-11-12T18:13:17.498Z,4.73
2022-11-12T18:16:03.814Z,5.30
2022-11-12T18:18:50.072Z,5.40
2022-11-12T18:21:36.360Z,6.00
2022-11-12T18:24:22.363Z,5.17
2022-11-12T18:27:08.462Z,5.77
2022-11-12T18:29:54.339Z,5.40
2022-11-12T18:32:42.444Z,4.90
2022-11-12T18:35:30.060Z,5.70
2022-11-12T18:38:16.430Z,4.83
2022-11-12T18:41:03.568Z,5.10
2022-11-12T18:43:49.690Z,5.23
2022-11-12T18:46:35.549Z,4.93
2022-11-12T18:49:21.605Z,5.13
2022-11-12T18:52:07.672Z,4.57
2022-11-12T18:54:53.574Z,4.83
2022-11-12T18:57:39.827Z,5.27
2022-11-12T19:00:25.823Z,5.33
2022-11-12T19:03:11.961Z,5.17
2022-11-12T19:05:58.970Z,5.43
2022-11-12T19:08:44.896Z,4.70
2022-11-12T19:11:30.785Z,4.53
2022-11-12T19:14:16.954Z,4.93
2022-11-12T19:17:03.011Z,4.57
2022-11-12T19:19:49.078Z,5.00
2022-11-12T19:22:35.117Z,4.90
2022-11-12T19:25:22.013Z,4.37
2022-11-12T19:28:08.383Z,4.80
2022-11-12T19:30:54.302Z,4.50
2022-11-12T19:33:40.270Z,4.33
2022-11-12T19:36:26.653Z,4.23
2022-11-12T19:39:13.199Z,4.47
2022-11-12T19:41:59.480Z,4.30
2022-11-12T19:44:45.473Z,4.57
2022-11-12T19:47:31.399Z,4.23
2022-11-12T19:50:22.172Z,4.40
2022-11-12T19:53:10.959Z,4.10
2022-11-12T19:55:59.847Z,4.13
2022-11-12T19:58:46.369Z,4.10
2022-11-12T20:01:32.665Z,4.17
2022-11-12T20:04:23.951Z,4.03
2022-11-12T20:07:10.269Z,4.13
2022-11-12T20:10:00.676Z,4.10
2022-11-12T20:12:47.198Z,4.27
2022-11-12T20:15:33.197Z,4.40
2022-11-12T20:18:19.362Z,4.13
2022-11-12T20:21:05.370Z,3.97
2022-11-12T20:23:51.555Z,4.13
2022-11-12T20:26:37.595Z,4.77
2022-11-12T20:29:23.628Z,4.27
2022-11-12T20:32:09.749Z,4.30
2022-11-12T20:34:55.569Z,4.93
2022-11-12T20:37:41.654Z,4.63
2022-11-12T20:40:27.504Z,4.30
2022-11-12T20:43:13.453Z,4.17
2022-11-12T20:45:59.649Z,3.87
2022-11-12T20:48:45.646Z,3.70
2022-11-12T20:51:33.039Z,4.10
2022-11-12T20:54:19.186Z,4.00
2022-11-12T20:57:04.895Z,3.73
2022-11-12T20:59:51.632Z,3.40
2022-11-12T21:02:37.952Z,3.37
2022-11-12T21:05:23.905Z,3.67
2022-11-12T21:08:09.872Z,3.40
2022-11-12T21:10:56.391Z,3.40
2022-11-12T21:13:42.575Z,3.87
2022-11-12T21:16:28.822Z,3.60
2022-11-12T21:19:14.897Z,3.63
2022-11-12T21:22:00.776Z,3.40
2022-11-12T21:24:46.667Z,3.27
2022-11-12T21:27:33.259Z,3.50
2022-11-12T21:30:19.944Z,3.40
2022-11-12T21:33:06.002Z,3.10
2022-11-12T21:35:53.249Z,3.40
2022-11-12T21:38:39.305Z,3.10
2022-11-12T21:41:27.198Z,3.10
2022-11-12T21:44:13.071Z,3.20
2022-11-12T21:46:59.014Z,3.10
2022-11-12T21:49:45.000Z,2.93
2022-11-12T21:52:30.994Z,3.07
2022-11-12T21:55:16.974Z,3.00
2022-11-12T21:58:02.915Z,3.27
2022-11-12T22:00:48.751Z,3.33
2022-11-12T22:03:34.807Z,3.13
2022-11-12T22:06:21.698Z,3.03
2022-11-12T22:09:07.847Z,3.03
2022-11-12T22:11:53.909Z,3.33
2022-11-12T22:14:39.741Z,3.50
2022-11-12T22:17:25.648Z,3.70
2022-11-12T22:20:11.775Z,3.50
2022-11-12T22:22:57.360Z,3.60
2022-11-12T22:25:43.374Z,3.40
2022-11-12T22:28:29.664Z,4.00
2022-11-12T22:31:17.153Z,3.47
2022-11-12T22:34:03.634Z,3.30
2022-11-12T22:36:49.647Z,3.70
2022-11-12T22:39:35.575Z,3.43
2022-11-12T22:42:21.778Z,3.40
2022-11-12T22:45:08.107Z,3.10
2022-11-12T22:47:54.038Z,3.00
2022-11-12T22:50:39.999Z,3.00
2022-11-12T22:53:25.792Z,3.00
2022-11-12T22:56:12.979Z,3.13
2022-11-12T22:58:59.162Z,2.93
2022-11-12T23:01:45.193Z,3.00
2022-11-12T23:04:31.280Z,3.00
2022-11-12T23:07:17.097Z,2.90
2022-11-12T23:10:03.229Z,2.90
2022-11-12T23:12:49.267Z,3.07
2022-11-12T23:15:35.117Z,2.97
2022-11-12T23:18:21.250Z,3.00
2022-11-12T23:21:09.341Z,3.00
2022-11-12T23:23:56.807Z,2.53
2022-11-12T23:26:42.464Z,2.90
2022-11-12T23:29:28.512Z,2.77
2022-11-12T23:32:14.398Z,2.80
2022-11-12T23:35:00.578Z,2.63
2022-11-12T23:37:46.552Z,2.40
2022-11-12T23:40:32.545Z,2.63
2022-11-12T23:43:18.589Z,2.70
2022-11-12T23:46:04.576Z,2.57
2022-11-12T23:48:51.015Z,2.80
2022-11-12T23:51:37.153Z,2.40
2022-11-12T23:54:22.929Z,2.63
2022-11-12T23:57:08.960Z,2.70
2022-11-12T23:59:54.834Z,2.53
